Time;durP1;ratioP1;P1;durP2;ratioP2;P2;SDS_P1;SDS_P2;PMS_P1;PMS_P2;Temp;Humidity;BMP_temperature;BMP_pressure;BME280_temperature;BME280_humidity;BME280_pressure;Samples;Min_cycle;Max_cycle;Signal;HPM_P1;HPM_P2
2023/12/20 00:01:00;;;;;;;14.00;2.83;;;5.30;99.90;;;;;;5071462;28;20045;-45
2023/12/20 00:03:26;;;;;;;17.48;2.80;;;5.20;99.90;;;;;;5071750;28;20050;-44
2023/12/20 00:05:51;;;;;;;12.63;2.28;;;5.30;99.90;;;;;;5071684;28;20041;-44
2023/12/20 00:08:17;;;;;;;15.05;2.25;;;5.30;99.90;;;;;;5071632;28;20097;-45
2023/12/20 00:10:44;;;;;;;14.18;2.53;;;5.30;99.90;;;;;;5071798;28;20112;-44
2023/12/20 00:13:09;;;;;;;11.65;2.15;;;5.10;99.90;;;;;;5071501;28;20051;-48
2023/12/20 00:15:35;;;;;;;12.60;1.95;;;5.10;99.90;;;;;;5071468;28;20041;-45
2023/12/20 00:18:01;;;;;;;14.23;2.53;;;5.10;99.90;;;;;;5071465;28;20404;-45
2023/12/20 00:20:27;;;;;;;9.95;1.88;;;5.10;99.90;;;;;;5071390;28;20040;-44
2023/12/20 00:23:00;;;;;;;16.35;2.97;;;5.20;99.90;;;;;;5070092;28;20040;-47
2023/12/20 00:25:26;;;;;;;10.55;2.05;;;5.20;99.90;;;;;;5071734;28;20036;-46
2023/12/20 00:27:52;;;;;;;10.60;2.45;;;5.00;99.90;;;;;;5071344;28;20400;-48
2023/12/20 00:30:18;;;;;;;15.45;3.05;;;5.20;99.90;;;;;;5071262;28;20040;-44
2023/12/20 00:32:46;;;;;;;13.18;1.92;;;5.30;99.90;;;;;;5072395;28;20544;-43
2023/12/20 00:35:15;;;;;;;11.52;2.22;;;5.10;99.90;;;;;;5074857;28;20052;-46
2023/12/20 00:37:42;;;;;;;17.20;2.28;;;5.30;99.90;;;;;;5074826;28;20378;-47
2023/12/20 00:40:09;;;;;;;14.63;2.15;;;5.40;99.90;;;;;;5074624;28;20037;-44
2023/12/20 00:42:38;;;;;;;18.05;2.65;;;5.20;99.90;;;;;;5074223;28;20412;-45
2023/12/20 00:45:04;;;;;;;16.63;2.42;;;5.30;99.90;;;;;;5074476;28;20041;-44
2023/12/20 00:47:31;;;;;;;18.20;2.50;;;5.40;99.90;;;;;;5074654;28;20178;-43
2023/12/20 00:49:57;;;;;;;13.50;2.08;;;5.30;99.90;;;;;;5073709;28;20035;-46
2023/12/20 00:52:23;;;;;;;17.20;2.35;;;5.50;99.90;;;;;;5074737;28;20048;-44
2023/12/20 00:54:49;;;;;;;15.30;2.15;;;5.40;99.90;;;;;;5074529;28;20395;-44
2023/12/20 00:57:15;;;;;;;14.30;2.00;;;5.30;99.90;;;;;;5074334;28;20123;-44
2023/12/20 00:59:41;;;;;;;17.45;2.88;;;5.30;99.90;;;;;;5074713;28;20105;-46
2023/12/20 01:02:06;;;;;;;8.10;2.10;;;5.40;99.90;;;;;;5074575;28;20048;-45
2023/12/20 01:04:32;;;;;;;12.82;2.50;;;5.40;99.90;;;;;;5074315;28;20037;-44
2023/12/20 01:06:58;;;;;;;17.20;3.05;;;5.30;99.90;;;;;;5073269;28;20036;-44
2023/12/20 01:09:26;;;;;;;13.68;3.40;;;5.30;99.90;;;;;;5074200;28;20045;-45
2023/12/20 01:11:52;;;;;;;12.23;2.13;;;5.20;99.90;;;;;;5074457;28;20115;-45
2023/12/20 01:14:18;;;;;;;12.35;2.35;;;5.20;99.90;;;;;;5074077;28;20050;-47
2023/12/20 01:16:44;;;;;;;11.30;2.20;;;5.20;99.90;;;;;;5074282;28;20219;-46
2023/12/20 01:19:09;;;;;;;11.73;2.55;;;5.40;99.90;;;;;;5074268;28;20044;-45
2023/12/20 01:21:35;;;;;;;16.33;2.75;;;5.30;99.90;;;;;;5074044;28;20056;-44
2023/12/20 01:24:01;;;;;;;12.40;2.28;;;5.30;99.90;;;;;;5073926;28;20413;-45
2023/12/20 01:26:26;;;;;;;16.05;3.42;;;5.40;99.90;;;;;;5074066;28;20071;-46
2023/12/20 01:28:52;;;;;;;14.23;2.80;;;5.50;99.90;;;;;;5074125;28;20040;-45
2023/12/20 01:31:18;;;;;;;15.48;2.80;;;5.50;99.90;;;;;;5074140;28;20028;-46
2023/12/20 01:33:43;;;;;;;17.67;4.75;;;5.40;99.90;;;;;;5073767;28;20059;-44
2023/12/20 01:36:09;;;;;;;14.52;2.22;;;5.60;99.90;;;;;;5073697;28;20040;-45
2023/12/20 01:38:34;;;;;;;14.05;2.20;;;5.60;99.90;;;;;;5073907;28;20046;-44
2023/12/20 01:41:00;;;;;;;19.42;2.95;;;5.60;99.90;;;;;;5073774;28;20393;-48
2023/12/20 01:43:26;;;;;;;14.90;2.30;;;5.50;99.90;;;;;;5072913;28;20067;-44
2023/12/20 01:45:52;;;;;;;15.23;2.85;;;5.60;99.90;;;;;;5072863;28;20056;-48
2023/12/20 01:48:19;;;;;;;14.60;2.13;;;5.50;99.90;;;;;;5073501;28;20072;-44
2023/12/20 01:50:45;;;;;;;16.10;2.28;;;5.40;99.90;;;;;;5073456;28;20115;-47
2023/12/20 01:53:12;;;;;;;14.93;2.50;;;5.50;99.90;;;;;;5073393;28;20123;-44
2023/12/20 01:55:41;;;;;;;20.80;3.15;;;5.60;99.90;;;;;;5073557;28;20040;-47
2023/12/20 01:58:09;;;;;;;13.57;2.20;;;5.60;99.90;;;;;;5073705;28;20400;-47
2023/12/20 02:00:37;;;;;;;17.67;2.85;;;5.60;99.90;;;;;;5073286;28;20033;-46
2023/12/20 02:03:03;;;;;;;16.35;3.05;;;5.70;99.90;;;;;;5073051;28;20055;-46
2023/12/20 02:05:34;;;;;;;14.60;2.30;;;5.70;99.90;;;;;;5073446;28;20048;-45
2023/12/20 02:08:00;;;;;;;13.10;2.10;;;5.70;99.90;;;;;;5073032;28;20060;-45
2023/12/20 02:10:27;;;;;;;15.73;2.30;;;5.80;99.90;;;;;;5073063;28;20040;-47
2023/12/20 02:12:52;;;;;;;19.85;2.70;;;5.50;99.90;;;;;;5072916;28;20048;-48
2023/12/20 02:15:18;;;;;;;22.38;2.47;;;5.70;99.90;;;;;;5072916;28;20052;-45
2023/12/20 02:17:46;;;;;;;14.55;2.53;;;5.40;99.90;;;;;;5073235;28;20055;-43
2023/12/20 02:20:12;;;;;;;16.35;2.15;;;5.40;99.90;;;;;;5072900;28;20044;-44
2023/12/20 02:22:37;;;;;;;13.32;2.15;;;5.50;99.90;;;;;;5072546;28;20063;-45
2023/12/20 02:25:03;;;;;;;19.73;2.60;;;5.50;99.90;;;;;;5072956;28;20051;-48
2023/12/20 02:27:29;;;;;;;24.05;3.25;;;5.50;99.90;;;;;;5071599;28;20048;-46
2023/12/20 02:29:55;;;;;;;13.65;2.28;;;5.60;99.90;;;;;;5071409;28;20040;-45
2023/12/20 02:32:22;;;;;;;22.15;2.85;;;5.70;99.90;;;;;;5073022;28;20089;-47
2023/12/20 02:34:49;;;;;;;20.50;3.13;;;5.70;99.90;;;;;;5072638;28;20040;-46
2023/12/20 02:37:15;;;;;;;29.50;3.42;;;5.70;99.90;;;;;;5072423;28;20044;-44
2023/12/20 02:39:41;;;;;;;16.92;3.88;;;5.70;99.90;;;;;;5072674;28;20062;-45
2023/12/20 02:42:06;;;;;;;21.45;2.85;;;5.80;99.90;;;;;;5072321;28;20136;-46
2023/12/20 02:44:32;;;;;;;20.77;3.20;;;5.80;99.90;;;;;;5072218;28;20045;-48
2023/12/20 02:46:58;;;;;;;22.90;3.20;;;5.80;99.90;;;;;;5072216;28;20033;-44
2023/12/20 02:49:23;;;;;;;22.55;3.53;;;5.70;99.90;;;;;;5072315;28;20044;-47
2023/12/20 02:51:49;;;;;;;21.38;4.85;;;5.90;99.90;;;;;;5071180;28;20370;-46
2023/12/20 02:54:15;;;;;;;22.25;3.75;;;6.10;99.90;;;;;;5072507;28;20642;-46
2023/12/20 02:56:40;;;;;;;26.73;3.53;;;5.80;99.90;;;;;;5072029;28;20439;-46
2023/12/20 02:59:08;;;;;;;29.70;4.20;;;5.80;99.90;;;;;;5071100;28;20045;-47
2023/12/20 03:01:34;;;;;;;22.17;3.45;;;6.10;99.90;;;;;;5072286;28;20060;-45
2023/12/20 03:04:00;;;;;;;27.58;3.88;;;6.00;99.90;;;;;;5072161;28;20028;-47
2023/12/20 03:06:26;;;;;;;23.77;4.13;;;5.90;99.90;;;;;;5070909;28;20545;-43
2023/12/20 03:08:52;;;;;;;26.15;3.88;;;6.10;99.90;;;;;;5072169;28;20036;-58
2023/12/20 03:11:18;;;;;;;28.60;4.43;;;5.90;99.90;;;;;;5071818;28;20058;-46
2023/12/20 03:13:44;;;;;;;25.73;4.30;;;6.10;99.90;;;;;;5071998;28;20120;-44
2023/12/20 03:16:10;;;;;;;26.70;4.00;;;6.10;99.90;;;;;;5072199;28;20119;-44
2023/12/20 03:18:36;;;;;;;20.60;3.72;;;6.10;99.90;;;;;;5071100;28;20036;-44
2023/12/20 03:21:02;;;;;;;26.45;5.47;;;6.20;99.90;;;;;;5072016;28;20048;-44
2023/12/20 03:23:30;;;;;;;20.42;3.90;;;6.10;99.90;;;;;;5072067;28;20044;-45
2023/12/20 03:25:56;;;;;;;23.50;4.63;;;6.10;99.90;;;;;;5072141;28;20059;-45
2023/12/20 03:28:22;;;;;;;18.63;2.80;;;6.10;99.90;;;;;;5070864;28;20473;-45
2023/12/20 03:30:48;;;;;;;17.77;3.20;;;6.20;99.90;;;;;;5071890;28;20499;-45
2023/12/20 03:33:14;;;;;;;19.42;2.92;;;6.10;99.90;;;;;;5071842;28;20072;-45
2023/12/20 03:35:40;;;;;;;19.45;3.97;;;6.20;99.90;;;;;;5070594;28;20047;-45
2023/12/20 03:38:05;;;;;;;22.08;3.13;;;6.00;99.90;;;;;;5072138;28;20033;-44
2023/12/20 03:40:31;;;;;;;25.67;3.63;;;6.10;99.90;;;;;;5070561;28;20480;-44
2023/12/20 03:42:56;;;;;;;25.92;3.90;;;5.90;99.90;;;;;;5071545;28;20496;-43
2023/12/20 03:45:22;;;;;;;19.23;2.92;;;6.00;99.90;;;;;;5072067;28;20533;-44
2023/12/20 03:47:48;;;;;;;21.65;4.20;;;6.00;99.90;;;;;;5071689;28;20037;-45
2023/12/20 03:50:14;;;;;;;26.70;3.70;;;5.90;99.90;;;;;;5071624;28;20044;-44
2023/12/20 03:52:40;;;;;;;24.98;4.43;;;6.00;99.90;;;;;;5070378;28;20051;-44
2023/12/20 03:55:06;;;;;;;20.10;3.28;;;5.90;99.90;;;;;;5071651;28;20396;-43
2023/12/20 03:57:31;;;;;;;22.85;3.13;;;6.00;99.90;;;;;;5071954;28;20037;-44
2023/12/20 03:59:57;;;;;;;20.05;3.50;;;6.00;99.90;;;;;;5071856;28;20036;-44
2023/12/20 04:02:22;;;;;;;21.08;3.58;;;6.00;99.90;;;;;;5071848;28;20044;-44
2023/12/20 04:04:48;;;;;;;25.33;4.18;;;6.00;99.90;;;;;;5071591;28;20041;-43
2023/12/20 04:07:14;;;;;;;31.02;4.45;;;6.10;99.90;;;;;;5072022;28;20048;-43
2023/12/20 04:09:41;;;;;;;24.83;3.90;;;6.10;99.90;;;;;;5075477;28;20143;-47
2023/12/20 04:12:07;;;;;;;26.60;4.03;;;6.30;99.90;;;;;;5075510;28;20401;-44
2023/12/20 04:14:32;;;;;;;26.33;3.97;;;6.10;99.90;;;;;;5075378;28;20040;-46
2023/12/20 04:16:58;;;;;;;24.58;3.33;;;6.20;99.90;;;;;;5075475;28;20063;-47
2023/12/20 04:19:24;;;;;;;25.85;3.65;;;6.20;99.90;;;;;;5075346;28;20102;-47
2023/12/20 04:21:50;;;;;;;21.77;3.58;;;6.40;99.90;;;;;;5075319;28;20033;-47
2023/12/20 04:24:15;;;;;;;19.25;3.47;;;6.40;99.90;;;;;;5074957;28;20097;-48
2023/12/20 04:26:41;;;;;;;24.25;3.55;;;6.30;99.90;;;;;;5075132;28;20442;-44
2023/12/20 04:29:07;;;;;;;22.98;4.03;;;6.40;99.90;;;;;;5074894;28;20086;-47
2023/12/20 04:31:32;;;;;;;20.92;3.65;;;6.50;99.90;;;;;;5074899;28;20036;-45
2023/12/20 04:33:58;;;;;;;26.90;4.50;;;6.50;99.90;;;;;;5074793;28;20048;-48
2023/12/20 04:36:26;;;;;;;23.80;3.97;;;6.60;99.90;;;;;;5075027;28;20123;-45
2023/12/20 04:38:53;;;;;;;21.42;3.80;;;6.60;99.90;;;;;;5074894;28;20083;-48
2023/12/20 04:41:19;;;;;;;23.38;3.78;;;6.60;99.90;;;;;;5075020;28;20051;-46
2023/12/20 04:43:45;;;;;;;23.73;3.30;;;6.50;99.90;;;;;;5073304;28;20048;-48
2023/12/20 04:46:11;;;;;;;30.45;3.75;;;6.60;99.90;;;;;;5074642;28;20094;-46
2023/12/20 04:48:37;;;;;;;24.92;4.30;;;6.60;99.90;;;;;;5074797;28;20049;-48
2023/12/20 04:51:03;;;;;;;19.83;3.63;;;6.70;99.90;;;;;;5074809;28;20040;-44
2023/12/20 04:53:28;;;;;;;24.83;5.15;;;6.60;99.90;;;;;;5074910;28;20110;-45
2023/12/20 04:55:54;;;;;;;27.67;4.07;;;6.60;99.90;;;;;;5074631;28;20040;-47
2023/12/20 04:58:20;;;;;;;23.20;3.38;;;6.60;99.90;;;;;;5074314;28;20172;-45
2023/12/20 05:00:45;;;;;;;24.83;4.72;;;6.60;99.90;;;;;;5074432;28;20465;-46
2023/12/20 05:03:11;;;;;;;18.95;3.42;;;6.60;99.90;;;;;;5074239;28;20048;-47
2023/12/20 05:05:37;;;;;;;23.77;4.97;;;6.70;99.90;;;;;;5074374;28;20473;-45
2023/12/20 05:08:03;;;;;;;21.58;3.72;;;6.70;99.90;;;;;;5073318;28;20074;-44
2023/12/20 05:10:29;;;;;;;27.33;3.67;;;6.70;99.90;;;;;;5074414;28;20048;-44
2023/12/20 05:12:55;;;;;;;25.23;3.38;;;6.70;99.90;;;;;;5074498;28;20059;-45
2023/12/20 05:15:20;;;;;;;20.10;4.13;;;6.70;99.90;;;;;;5074221;28;20138;-46
2023/12/20 05:17:46;;;;;;;27.90;3.35;;;6.80;99.90;;;;;;5074072;28;20040;-44
2023/12/20 05:20:12;;;;;;;15.23;2.97;;;6.80;99.90;;;;;;5073878;28;20097;-46
2023/12/20 05:22:38;;;;;;;21.67;3.03;;;6.70;99.90;;;;;;5074144;28;20051;-45
2023/12/20 05:25:04;;;;;;;21.67;3.58;;;6.90;99.90;;;;;;5074189;28;20093;-46
2023/12/20 05:27:30;;;;;;;17.20;3.72;;;6.90;99.90;;;;;;5074262;28;20036;-46
2023/12/20 05:29:57;;;;;;;20.33;4.60;;;6.80;99.90;;;;;;5073833;28;20116;-46
2023/12/20 05:32:23;;;;;;;19.17;3.15;;;6.90;99.90;;;;;;5074001;28;20372;-45
2023/12/20 05:34:49;;;;;;;24.70;4.28;;;6.90;99.90;;;;;;5073880;28;20036;-43
2023/12/20 05:37:14;;;;;;;18.80;2.75;;;6.70;99.90;;;;;;5073850;28;20051;-45
2023/12/20 05:39:40;;;;;;;18.25;2.95;;;6.90;99.90;;;;;;5073500;28;20036;-44
2023/12/20 05:42:06;;;;;;;21.88;3.22;;;6.90;99.90;;;;;;5073579;28;20140;-45
2023/12/20 05:44:31;;;;;;;17.65;4.20;;;6.80;99.90;;;;;;5073759;28;20048;-44
2023/12/20 05:46:57;;;;;;;16.15;2.72;;;6.80;99.90;;;;;;5073787;28;20111;-44
2023/12/20 05:49:23;;;;;;;19.08;2.92;;;6.90;99.90;;;;;;5073726;28;20582;-44
2023/12/20 05:51:49;;;;;;;19.33;2.88;;;6.80;99.90;;;;;;5073819;28;20044;-44
2023/12/20 05:54:15;;;;;;;21.88;4.93;;;6.90;99.90;;;;;;5055815;28;20052;-44
2023/12/20 05:56:41;;;;;;;18.20;2.97;;;6.90;99.90;;;;;;5073374;28;20036;-48
2023/12/20 05:59:06;;;;;;;19.30;3.17;;;7.00;99.90;;;;;;5073650;28;20519;-45
2023/12/20 06:01:32;;;;;;;22.58;5.20;;;7.00;99.90;;;;;;5071981;28;20519;-48
2023/12/20 06:03:58;;;;;;;34.20;5.85;;;6.90;99.90;;;;;;5073212;28;20649;-47
2023/12/20 06:06:23;;;;;;;25.55;4.38;;;7.00;99.90;;;;;;5071864;28;20576;-44
2023/12/20 06:08:49;;;;;;;22.25;3.70;;;7.20;99.90;;;;;;5073096;28;20043;-45
2023/12/20 06:11:15;;;;;;;23.55;6.00;;;7.10;99.90;;;;;;5073110;28;20040;-45
2023/12/20 06:13:41;;;;;;;23.27;3.88;;;7.20;99.90;;;;;;5072961;28;20048;-46
2023/12/20 06:16:09;;;;;;;28.65;5.88;;;7.10;99.90;;;;;;5071517;28;20083;-46
2023/12/20 06:18:36;;;;;;;27.60;4.47;;;7.00;99.90;;;;;;5073094;28;20119;-46
2023/12/20 06:21:02;;;;;;;22.30;4.25;;;7.20;99.90;;;;;;5071613;28;20047;-48
2023/12/20 06:23:28;;;;;;;27.25;3.65;;;7.10;99.90;;;;;;5073031;28;20044;-45
2023/12/20 06:25:54;;;;;;;23.02;4.93;;;7.10;99.90;;;;;;5073021;28;20453;-45
2023/12/20 06:28:19;;;;;;;23.05;4.13;;;7.20;99.90;;;;;;5072539;28;20101;-45
2023/12/20 06:30:47;;;;;;;23.45;5.40;;;7.10;99.90;;;;;;5071992;28;20048;-47
2023/12/20 06:33:13;;;;;;;25.27;3.38;;;7.10;99.90;;;;;;5072666;28;20055;-46
2023/12/20 06:35:39;;;;;;;16.60;3.20;;;7.20;99.90;;;;;;5072914;28;20048;-46
2023/12/20 06:38:04;;;;;;;21.23;3.67;;;7.10;99.90;;;;;;5072546;28;20048;-44
2023/12/20 06:40:30;;;;;;;18.55;2.83;;;7.20;99.90;;;;;;5072686;28;20044;-47
2023/12/20 06:42:56;;;;;;;24.30;4.50;;;7.20;99.90;;;;;;5072129;28;20048;-46
2023/12/20 06:45:21;;;;;;;25.80;5.40;;;7.20;99.90;;;;;;5072678;28;20041;-44
2023/12/20 06:47:47;;;;;;;25.88;5.10;;;7.10;99.90;;;;;;5072569;28;20040;-45
2023/12/20 06:50:13;;;;;;;19.83;3.67;;;7.30;99.90;;;;;;5072256;28;20044;-48
2023/12/20 06:52:38;;;;;;;24.08;3.00;;;7.30;99.90;;;;;;5072584;28;20062;-44
2023/12/20 06:55:04;;;;;;;22.98;3.53;;;7.30;99.90;;;;;;5072239;28;20392;-47
2023/12/20 06:57:30;;;;;;;20.92;3.10;;;7.30;99.90;;;;;;5072480;28;20040;-47
2023/12/20 06:59:56;;;;;;;20.45;3.58;;;7.30;99.90;;;;;;5072390;28;20032;-45
2023/12/20 07:02:22;;;;;;;15.50;2.60;;;7.40;99.90;;;;;;5072398;28;20076;-45
2023/12/20 07:04:48;;;;;;;17.92;2.72;;;7.30;99.90;;;;;;5072168;28;20040;-44
2023/12/20 07:07:13;;;;;;;21.05;3.65;;;7.40;99.90;;;;;;5072423;28;20036;-43
2023/12/20 07:09:41;;;;;;;24.38;3.33;;;7.40;99.90;;;;;;5072069;28;20392;-44
2023/12/20 07:12:06;;;;;;;23.27;4.07;;;7.40;99.90;;;;;;5072073;28;20041;-47
2023/12/20 07:14:32;;;;;;;22.42;3.75;;;7.50;99.90;;;;;;5072308;28;20086;-47
2023/12/20 07:16:57;;;;;;;18.95;4.03;;;7.50;99.90;;;;;;5072192;28;20494;-48
2023/12/20 07:19:23;;;;;;;22.33;3.63;;;7.50;99.90;;;;;;5072291;28;20049;-46
2023/12/20 07:21:49;;;;;;;19.73;4.53;;;7.40;99.90;;;;;;5072037;28;20052;-47
2023/12/20 07:24:14;;;;;;;28.02;4.25;;;7.50;99.90;;;;;;5071772;28;20617;-47
2023/12/20 07:26:40;;;;;;;20.38;3.38;;;7.50;99.90;;;;;;5071911;28;20044;-51
2023/12/20 07:29:06;;;;;;;20.27;4.00;;;7.50;99.90;;;;;;5072013;28;20122;-49
2023/12/20 07:31:32;;;;;;;22.15;4.10;;;7.50;99.90;;;;;;5071868;28;20076;-43
2023/12/20 07:33:58;;;;;;;17.55;3.05;;;7.40;99.90;;;;;;5071754;28;20076;-46
2023/12/20 07:36:24;;;;;;;20.38;2.92;;;7.40;99.90;;;;;;5071932;28;20114;-48
2023/12/20 07:38:49;;;;;;;24.80;4.78;;;7.30;99.90;;;;;;5072027;28;20044;-47
2023/12/20 07:41:21;;;;;;;25.73;4.80;;;7.40;99.90;;;;;;5072279;28;20032;-44
2023/12/20 07:43:46;;;;;;;20.90;3.27;;;7.30;99.90;;;;;;5075681;28;20052;-44
2023/12/20 07:46:12;;;;;;;19.55;5.10;;;7.40;99.90;;;;;;5075626;28;20277;-46
2023/12/20 07:48:38;;;;;;;18.23;3.80;;;7.50;99.90;;;;;;5075886;28;20036;-45
2023/12/20 07:51:06;;;;;;;25.27;4.75;;;7.40;99.90;;;;;;5075928;28;20098;-46
2023/12/20 07:53:33;;;;;;;19.13;3.30;;;7.50;99.90;;;;;;5075710;28;20052;-44
2023/12/20 07:55:59;;;;;;;21.23;5.05;;;7.40;99.90;;;;;;5075428;28;20079;-46
2023/12/20 07:58:24;;;;;;;18.17;3.40;;;7.50;99.90;;;;;;5074102;28;20076;-45
2023/12/20 08:00:50;;;;;;;21.67;3.92;;;7.50;99.90;;;;;;5075375;28;20044;-44
2023/12/20 08:03:16;;;;;;;21.70;5.53;;;7.50;99.90;;;;;;5073919;28;20045;-44
2023/12/20 08:05:41;;;;;;;28.73;4.53;;;7.50;99.90;;;;;;5075343;28;20476;-44
2023/12/20 08:08:07;;;;;;;18.52;3.63;;;7.60;99.90;;;;;;5075528;28;20040;-44
2023/12/20 08:10:33;;;;;;;20.85;3.33;;;7.50;99.90;;;;;;5075509;28;20044;-45
2023/12/20 08:12:59;;;;;;;26.35;3.92;;;7.40;99.90;;;;;;5075533;28;20091;-44
2023/12/20 08:15:24;;;;;;;23.70;3.97;;;7.50;99.90;;;;;;5075429;28;20036;-45
2023/12/20 08:17:53;;;;;;;22.98;3.63;;;7.40;99.90;;;;;;5075279;28;20044;-44
2023/12/20 08:20:19;;;;;;;20.15;3.67;;;7.40;99.90;;;;;;5075337;28;20049;-46
2023/12/20 08:22:44;;;;;;;18.20;3.20;;;7.40;99.90;;;;;;5075096;28;20144;-48
2023/12/20 08:25:10;;;;;;;25.58;3.92;;;7.40;99.90;;;;;;5075004;28;20047;-45
2023/12/20 08:27:42;;;;;;;16.52;2.50;;;7.30;99.90;;;;;;5073890;28;20041;-45
2023/12/20 08:30:11;;;;;;;18.83;2.53;;;7.40;99.90;;;;;;5075302;28;20039;-45
2023/12/20 08:32:36;;;;;;;20.67;3.15;;;7.50;99.90;;;;;;5075052;28;20037;-46
2023/12/20 08:35:02;;;;;;;13.82;1.60;;;7.50;99.90;;;;;;5075162;28;20063;-45
2023/12/20 08:37:29;;;;;;;6.00;1.13;;;6.90;99.90;;;;;;5074809;28;20056;-45
2023/12/20 08:39:55;;;;;;;6.85;0.80;;;6.50;99.90;;;;;;5074701;28;20036;-46
2023/12/20 08:42:21;;;;;;;8.80;1.77;;;6.30;99.90;;;;;;5074498;28;20052;-45
2023/12/20 08:44:47;;;;;;;7.30;1.30;;;6.10;99.90;;;;;;5057192;28;20052;-45
2023/12/20 08:47:15;;;;;;;5.10;0.88;;;5.10;99.90;;;;;;5074735;28;20036;-48
2023/12/20 08:49:41;;;;;;;7.82;1.65;;;5.00;99.90;;;;;;5074679;28;20043;-47
2023/12/20 08:52:07;;;;;;;9.98;1.10;;;4.50;99.90;;;;;;5074888;28;20037;-47
2023/12/20 08:54:32;;;;;;;10.27;1.40;;;5.00;99.90;;;;;;5073950;28;20047;-45
2023/12/20 08:56:58;;;;;;;7.90;1.60;;;4.50;99.90;;;;;;5074349;28;20070;-47
2023/12/20 08:59:24;;;;;;;8.25;1.33;;;5.00;99.90;;;;;;5074406;28;20078;-48
2023/12/20 09:01:54;;;;;;;15.32;1.77;;;5.30;99.90;;;;;;5074718;28;20119;-45
2023/12/20 09:04:20;;;;;;;11.63;2.00;;;5.00;99.90;;;;;;5074293;28;20424;-46
2023/12/20 09:06:45;;;;;;;12.77;1.52;;;4.90;99.90;;;;;;5074359;28;20028;-47
2023/12/20 09:09:13;;;;;;;9.85;1.73;;;5.10;99.90;;;;;;5074248;28;20530;-47
2023/12/20 09:11:39;;;;;;;6.13;1.58;;;4.90;99.90;;;;;;5074572;28;20043;-48
2023/12/20 09:14:05;;;;;;;5.68;1.10;;;4.70;99.90;;;;;;5074141;28;20044;-47
2023/12/20 09:16:31;;;;;;;7.95;1.13;;;5.10;99.90;;;;;;5074023;28;20048;-47
2023/12/20 09:18:57;;;;;;;4.88;0.75;;;5.10;99.90;;;;;;5073790;28;20087;-46
2023/12/20 09:21:23;;;;;;;6.68;1.08;;;5.10;99.90;;;;;;5074286;28;20130;-45
2023/12/20 09:23:49;;;;;;;8.63;1.27;;;4.10;99.90;;;;;;5074189;28;20051;-45
2023/12/20 09:26:14;;;;;;;4.68;0.80;;;4.20;99.90;;;;;;5074147;28;20040;-46
2023/12/20 09:28:40;;;;;;;8.25;1.50;;;4.50;99.90;;;;;;5074102;28;20043;-48
2023/12/20 09:31:06;;;;;;;10.45;1.52;;;5.00;99.90;;;;;;5073872;28;20492;-44
2023/12/20 09:33:33;;;;;;;11.02;1.65;;;4.10;99.90;;;;;;5073902;28;20503;-43
2023/12/20 09:35:59;;;;;;;8.88;1.00;;;4.90;99.90;;;;;;5074051;28;20392;-45
2023/12/20 09:38:24;;;;;;;10.23;1.25;;;4.20;99.90;;;;;;5072837;28;20040;-48
2023/12/20 09:40:50;;;;;;;6.38;1.63;;;4.10;99.90;;;;;;5073967;28;20129;-43
2023/12/20 09:43:19;;;;;;;8.38;1.30;;;4.30;99.90;;;;;;5073395;28;20137;-44
2023/12/20 09:45:47;;;;;;;6.28;1.20;;;5.00;99.90;;;;;;5072633;28;20037;-45
2023/12/20 09:48:15;;;;;;;11.30;2.83;;;5.10;99.90;;;;;;5073751;28;20049;-48
2023/12/20 09:50:42;;;;;;;13.38;1.60;;;4.40;99.90;;;;;;5073396;28;20638;-46
2023/12/20 09:53:09;;;;;;;14.85;2.65;;;4.40;99.90;;;;;;5073645;28;20044;-45
2023/12/20 09:55:36;;;;;;;9.60;1.40;;;5.20;99.90;;;;;;5073546;28;20115;-47
2023/12/20 09:58:02;;;;;;;11.70;1.23;;;4.80;99.90;;;;;;5073245;28;20119;-48
2023/12/20 10:00:28;;;;;;;8.05;1.02;;;4.60;99.90;;;;;;5073324;28;20109;-48
2023/12/20 10:02:59;;;;;;;10.73;1.40;;;5.40;99.90;;;;;;5071975;28;20036;-44
2023/12/20 10:05:31;;;;;;;10.02;2.00;;;5.00;99.90;;;;;;5072183;28;20499;-48
2023/12/20 10:07:58;;;;;;;10.98;2.10;;;5.60;99.90;;;;;;5073390;28;20044;-45
2023/12/20 10:10:25;;;;;;;11.18;1.70;;;4.80;99.90;;;;;;5073327;28;20370;-48
2023/12/20 10:13:08;;;;;;;12.50;1.77;;;5.60;99.90;;;;;;5072958;28;20476;-45
2023/12/20 10:15:35;;;;;;;12.20;1.70;;;5.00;99.90;;;;;;5072948;28;20047;-45
2023/12/20 10:18:02;;;;;;;9.20;2.20;;;4.90;99.90;;;;;;5072977;28;20048;-44
2023/12/20 10:20:28;;;;;;;15.60;3.38;;;5.10;99.90;;;;;;5071923;28;20102;-49
2023/12/20 10:22:58;;;;;;;9.75;1.33;;;5.10;99.90;;;;;;5071533;28;20052;-47
2023/12/20 10:25:25;;;;;;;9.82;1.42;;;5.80;99.90;;;;;;5072624;28;20037;-49
2023/12/20 10:28:07;;;;;;;12.43;2.35;;;5.90;99.90;;;;;;5071367;28;20044;-43
2023/12/20 10:30:33;;;;;;;10.20;1.30;;;5.10;99.90;;;;;;5071252;28;20513;-44
2023/12/20 10:32:59;;;;;;;12.52;3.25;;;5.30;99.90;;;;;;5072780;28;20036;-46
2023/12/20 10:35:24;;;;;;;11.02;1.55;;;5.40;99.90;;;;;;5072425;28;20094;-44
2023/12/20 10:37:56;;;;;;;14.48;1.90;;;5.50;99.90;;;;;;5072537;28;20119;-45
2023/12/20 10:40:22;;;;;;;11.95;1.67;;;5.80;99.90;;;;;;5072595;28;20045;-44
2023/12/20 10:42:50;;;;;;;10.15;1.60;;;5.70;99.90;;;;;;5072389;28;20056;-43
2023/12/20 10:45:17;;;;;;;10.77;1.52;;;5.80;99.90;;;;;;5072544;28;20041;-45
2023/12/20 10:47:46;;;;;;;19.10;2.30;;;6.20;99.90;;;;;;5072588;28;20094;-44
2023/12/20 10:50:12;;;;;;;9.88;1.67;;;6.30;99.90;;;;;;5071307;28;20047;-44
2023/12/20 10:52:40;;;;;;;12.80;2.58;;;6.50;99.90;;;;;;5072577;28;20051;-46
2023/12/20 10:55:06;;;;;;;16.10;2.92;;;6.40;99.90;;;;;;5054359;28;20097;-46
2023/12/20 10:57:32;;;;;;;23.17;2.33;;;6.50;99.90;;;;;;5072303;28;20040;-45
2023/12/20 11:00:04;;;;;;;17.38;2.58;;;6.50;99.90;;;;;;5072491;28;20044;-45
2023/12/20 11:02:32;;;;;;;17.63;4.03;;;6.50;99.90;;;;;;5072202;28;20053;-47
2023/12/20 11:05:35;;;;;;;12.98;2.88;;;6.60;99.90;;;;;;5072264;28;20036;-44
2023/12/20 11:08:09;;;;;;;13.40;1.58;;;6.60;99.90;;;;;;5072331;28;20032;-44
2023/12/20 11:10:52;;;;;;;14.90;1.92;;;6.60;99.90;;;;;;5072147;28;20044;-45
2023/12/20 11:13:23;;;;;;;12.45;1.92;;;6.70;99.90;;;;;;5072267;28;20526;-46
2023/12/20 11:15:49;;;;;;;15.50;2.40;;;6.70;99.90;;;;;;5072079;28;20101;-59
2023/12/20 11:18:15;;;;;;;13.52;1.92;;;6.60;99.90;;;;;;5071872;28;20040;-59
2023/12/20 11:20:42;;;;;;;19.20;2.60;;;6.60;99.90;;;;;;5072433;28;20040;-60
2023/12/20 11:23:10;;;;;;;16.70;2.28;;;6.70;99.90;;;;;;5072053;28;20052;-60
2023/12/20 11:25:52;;;;;;;18.42;2.88;;;6.70;99.90;;;;;;5072297;28;20036;-60
2023/12/20 11:28:21;;;;;;;13.98;1.80;;;6.70;99.90;;;;;;5071874;28;20047;-59
2023/12/20 11:30:49;;;;;;;15.55;2.30;;;6.80;99.90;;;;;;5072008;28;20599;-59
2023/12/20 11:33:16;;;;;;;10.63;1.38;;;6.80;99.90;;;;;;5054247;28;20104;-59
2023/12/20 11:35:42;;;;;;;11.13;1.95;;;6.90;99.90;;;;;;5070914;28;20485;-59
2023/12/20 11:38:09;;;;;;;15.70;2.47;;;6.90;99.90;;;;;;5070501;28;20056;-59
2023/12/20 11:40:36;;;;;;;12.23;1.67;;;7.00;99.90;;;;;;5071880;28;20045;-59
2023/12/20 11:43:02;;;;;;;16.23;2.45;;;7.00;99.90;;;;;;5071651;28;20136;-60
2023/12/20 11:45:28;;;;;;;13.10;2.13;;;7.00;99.90;;;;;;5071955;28;20435;-60
2023/12/20 11:47:55;;;;;;;16.38;2.10;;;6.90;99.90;;;;;;5070804;28;20036;-60
2023/12/20 11:50:22;;;;;;;12.43;2.00;;;7.00;99.90;;;;;;5071931;28;20086;-60
2023/12/20 11:52:49;;;;;;;17.30;1.95;;;6.90;99.90;;;;;;5071747;28;20049;-59
2023/12/20 11:55:15;;;;;;;18.55;2.20;;;6.90;99.90;;;;;;5071866;28;20040;-58
2023/12/20 11:57:41;;;;;;;15.20;2.42;;;6.90;99.90;;;;;;5071906;28;20492;-59
2023/12/20 12:00:08;;;;;;;22.38;2.22;;;7.00;99.90;;;;;;5070654;28;20474;-59
2023/12/20 12:02:34;;;;;;;14.20;2.17;;;7.00;99.90;;;;;;5071523;28;20047;-59
2023/12/20 12:04:59;;;;;;;13.45;2.30;;;7.00;99.90;;;;;;5071821;28;20111;-59
2023/12/20 12:07:25;;;;;;;14.25;1.92;;;7.00;99.90;;;;;;5071532;28;20492;-59
2023/12/20 12:09:51;;;;;;;15.98;2.15;;;7.00;99.90;;;;;;5071789;28;20043;-60
2023/12/20 12:12:20;;;;;;;14.82;2.30;;;6.90;99.90;;;;;;5071420;28;20040;-59
2023/12/20 12:14:46;;;;;;;12.50;1.98;;;6.90;99.90;;;;;;5071783;28;20032;-59
2023/12/20 12:17:13;;;;;;;14.43;2.30;;;6.90;99.90;;;;;;5071699;28;20503;-60
2023/12/20 12:19:39;;;;;;;15.18;1.65;;;7.00;99.90;;;;;;5070461;28;20407;-59
2023/12/20 12:22:16;;;;;;;11.65;1.98;;;6.90;99.90;;;;;;5071675;28;20047;-59
2023/12/20 12:24:43;;;;;;;12.65;1.48;;;6.90;99.90;;;;;;5071525;28;20045;-59
2023/12/20 12:27:09;;;;;;;13.48;2.33;;;6.90;99.90;;;;;;5071155;28;20481;-59
2023/12/20 12:29:36;;;;;;;11.60;2.03;;;6.90;99.90;;;;;;5073877;28;20037;-59
2023/12/20 12:32:08;;;;;;;10.98;2.05;;;6.90;99.90;;;;;;5075214;28;20036;-59
2023/12/20 12:34:35;;;;;;;10.60;1.80;;;6.90;99.90;;;;;;5075270;28;20040;-59
2023/12/20 12:37:01;;;;;;;11.30;1.65;;;6.90;99.90;;;;;;5074811;28;20094;-60
2023/12/20 12:39:27;;;;;;;12.40;1.65;;;6.90;99.90;;;;;;5073722;28;20177;-59
2023/12/20 12:41:53;;;;;;;15.40;1.98;;;6.80;99.90;;;;;;5074849;28;20532;-60
2023/12/20 12:44:20;;;;;;;15.23;1.73;;;6.80;99.90;;;;;;5074666;28;20080;-59